Time;durP1;ratioP1;P1;durP2;ratioP2;P2;SDS_P1;SDS_P2;PMS_P1;PMS_P2;Temp;Humidity;BMP_temperature;BMP_pressure;BME280_temperature;BME280_humidity;BME280_pressure;Samples;Min_cycle;Max_cycle;Signal;HPM_P1;HPM_P2
2021/11/11 00:04:10;;;;;;;33.25;16.90;;;;;;;;;;10333297;28;20079;-79
2021/11/11 00:09:11;;;;;;;32.63;18.30;;;;;;;;;;10332947;28;20123;-79
2021/11/11 00:14:11;;;;;;;37.40;18.35;;;;;;;;;;10333051;28;20110;-79
2021/11/11 00:19:11;;;;;;;23.25;16.33;;;;;;;;;;10332494;28;20137;-79
2021/11/11 00:24:11;;;;;;;36.50;15.60;;;;;;;;;;10348873;28;20508;-79
2021/11/11 00:29:12;;;;;;;30.63;14.97;;;;;;;;;;10333950;28;20038;-78
2021/11/11 00:34:12;;;;;;;35.25;18.10;;;;;;;;;;10338907;28;20264;-79
2021/11/11 00:39:12;;;;;;;36.08;17.60;;;;;;;;;;10339582;28;20034;-79
2021/11/11 00:44:12;;;;;;;33.63;18.60;;;;;;;;;;10341208;28;20084;-79
2021/11/11 00:49:13;;;;;;;41.88;18.50;;;;;;;;;;10355224;28;20117;-79
2021/11/11 00:54:13;;;;;;;39.30;18.43;;;;;;;;;;10355601;28;20113;-79
2021/11/11 00:59:13;;;;;;;27.30;17.33;;;;;;;;;;10339017;28;20795;-80
2021/11/11 01:04:13;;;;;;;25.40;16.52;;;;;;;;;;10355279;28;20026;-79
2021/11/11 01:09:13;;;;;;;23.40;16.55;;;;;;;;;;10339813;28;20073;-79
2021/11/11 01:14:14;;;;;;;39.72;20.25;;;;;;;;;;10337863;28;20034;-79
2021/11/11 01:19:14;;;;;;;35.95;19.58;;;;;;;;;;10338095;28;20058;-79
2021/11/11 01:24:15;;;;;;;32.50;18.50;;;;;;;;;;10339205;28;20077;-79
2021/11/11 01:29:16;;;;;;;29.25;18.17;;;;;;;;;;10337877;28;20058;-79
2021/11/11 01:34:16;;;;;;;43.72;21.15;;;;;;;;;;10353545;28;20040;-78
2021/11/11 01:39:17;;;;;;;28.90;19.92;;;;;;;;;;10337363;28;20030;-79
2021/11/11 01:44:17;;;;;;;38.30;20.08;;;;;;;;;;10336994;28;20031;-79
2021/11/11 01:49:17;;;;;;;34.70;19.17;;;;;;;;;;10337633;28;20535;-79
2021/11/11 01:54:18;;;;;;;38.53;20.65;;;;;;;;;;10353339;28;20379;-80
2021/11/11 01:59:18;;;;;;;28.65;19.55;;;;;;;;;;10353177;28;20034;-78
2021/11/11 02:04:18;;;;;;;45.92;18.23;;;;;;;;;;10352479;28;20117;-79
2021/11/11 02:09:18;;;;;;;33.78;18.63;;;;;;;;;;10352720;28;20045;-79
2021/11/11 02:14:19;;;;;;;26.05;17.98;;;;;;;;;;10351982;28;20096;-79
2021/11/11 02:19:20;;;;;;;29.48;17.77;;;;;;;;;;10336437;28;20062;-79
2021/11/11 02:24:20;;;;;;;32.83;19.33;;;;;;;;;;10352000;28;20380;-79
2021/11/11 02:29:21;;;;;;;26.73;18.70;;;;;;;;;;10351998;28;20026;-79
2021/11/11 02:34:23;;;;;;;28.55;17.92;;;;;;;;;;10352339;28;20109;-79
2021/11/11 02:39:23;;;;;;;32.70;17.15;;;;;;;;;;10351176;28;20116;-78
2021/11/11 02:44:24;;;;;;;30.20;16.98;;;;;;;;;;10335350;28;20095;-79
2021/11/11 02:49:32;;;;;;;38.28;17.70;;;;;;;;;;10335919;28;20034;-79
2021/11/11 02:54:38;;;;;;;28.23;17.40;;;;;;;;;;10350076;28;20054;-79
2021/11/11 02:59:39;;;;;;;33.22;16.10;;;;;;;;;;10335626;28;20033;-79
2021/11/11 03:04:39;;;;;;;28.48;18.33;;;;;;;;;;10350826;28;20046;-79
2021/11/11 03:09:40;;;;;;;27.60;16.55;;;;;;;;;;10334862;28;20033;-79
2021/11/11 03:14:41;;;;;;;32.92;15.43;;;;;;;;;;10334953;28;20030;-79
2021/11/11 03:19:42;;;;;;;29.13;16.80;;;;;;;;;;10349554;28;20054;-79
2021/11/11 03:24:42;;;;;;;36.50;16.55;;;;;;;;;;10350154;28;20030;-79
2021/11/11 03:29:42;;;;;;;28.17;15.98;;;;;;;;;;10335345;28;20025;-79
2021/11/11 03:34:43;;;;;;;32.50;14.98;;;;;;;;;;10349440;28;20426;-80
2021/11/11 03:39:43;;;;;;;31.50;18.20;;;;;;;;;;10334384;28;20030;-79
2021/11/11 03:44:43;;;;;;;35.00;17.00;;;;;;;;;;10349642;28;20050;-79
2021/11/11 03:49:44;;;;;;;31.08;17.10;;;;;;;;;;10333865;28;20030;-78
2021/11/11 03:54:44;;;;;;;30.35;17.88;;;;;;;;;;10350497;28;20052;-78
2021/11/11 03:59:44;;;;;;;28.23;16.97;;;;;;;;;;10337750;28;20121;-77
2021/11/11 04:04:44;;;;;;;31.77;18.63;;;;;;;;;;10343476;28;20288;-78
2021/11/11 04:09:44;;;;;;;33.83;20.42;;;;;;;;;;10346297;28;20026;-79
2021/11/11 04:14:45;;;;;;;35.25;15.43;;;;;;;;;;10358661;28;20426;-79
2021/11/11 04:19:45;;;;;;;37.53;18.95;;;;;;;;;;10342254;28;20058;-79
2021/11/11 04:24:46;;;;;;;29.17;15.70;;;;;;;;;;10341718;28;20065;-79
2021/11/11 04:30:01;;;;;;;34.50;17.90;;;;;;;;;;10356582;28;20080;-80
2021/11/11 04:35:01;;;;;;;37.63;18.63;;;;;;;;;;10341370;28;20022;-79
2021/11/11 05:06:08;;;;;;;30.23;20.23;;;;;;;;;;10339647;28;20030;-79
2021/11/11 05:11:08;;;;;;;36.15;19.90;;;;;;;;;;10339298;28;20027;-79
2021/11/11 05:16:08;;;;;;;30.38;18.33;;;;;;;;;;10339722;28;20125;-79
2021/11/11 05:21:08;;;;;;;28.00;20.67;;;;;;;;;;10340453;28;20108;-79
2021/11/11 05:26:09;;;;;;;35.20;20.98;;;;;;;;;;10354468;28;20457;-79
2021/11/11 05:31:09;;;;;;;29.98;19.65;;;;;;;;;;10354854;28;20109;-78
2021/11/11 05:36:09;;;;;;;42.05;24.00;;;;;;;;;;10354472;28;20470;-79
2021/11/11 05:41:10;;;;;;;30.38;18.55;;;;;;;;;;10340263;28;20030;-76
2021/11/11 05:46:10;;;;;;;39.08;20.88;;;;;;;;;;10353702;28;20029;-77
2021/11/11 05:51:10;;;;;;;30.55;20.63;;;;;;;;;;10338132;28;20178;-77
2021/11/11 05:56:10;;;;;;;38.17;20.52;;;;;;;;;;10338517;28;20060;-78
2021/11/11 06:01:11;;;;;;;35.20;22.00;;;;;;;;;;10337900;28;20105;-77
2021/11/11 06:06:11;;;;;;;33.30;22.33;;;;;;;;;;10339077;28;20050;-78
2021/11/11 06:11:11;;;;;;;33.13;19.50;;;;;;;;;;10352647;28;20034;-79
2021/11/11 06:16:11;;;;;;;43.53;20.30;;;;;;;;;;10337941;28;20042;-79
2021/11/11 06:21:12;;;;;;;30.42;19.40;;;;;;;;;;10338042;28;20059;-79
2021/11/11 06:26:12;;;;;;;32.60;19.38;;;;;;;;;;10334963;28;20026;-79
2021/11/11 06:31:12;;;;;;;32.80;21.10;;;;;;;;;;10335692;28;20030;-79
2021/11/11 06:36:12;;;;;;;42.30;23.40;;;;;;;;;;10335077;28;20031;-79
2021/11/11 06:41:13;;;;;;;31.73;21.92;;;;;;;;;;10336843;28;20372;-79
2021/11/11 06:46:13;;;;;;;35.40;22.90;;;;;;;;;;10335471;28;20093;-79
2021/11/11 06:51:13;;;;;;;35.97;23.75;;;;;;;;;;10350604;28;20541;-79
2021/11/11 06:56:13;;;;;;;37.28;21.08;;;;;;;;;;10350349;28;20440;-79
2021/11/11 07:01:14;;;;;;;32.13;22.00;;;;;;;;;;10350544;28;20109;-79
2021/11/11 07:06:14;;;;;;;39.58;23.65;;;;;;;;;;10334052;28;20304;-79
2021/11/11 07:11:14;;;;;;;34.17;22.40;;;;;;;;;;10334004;28;20030;-79
2021/11/11 07:16:15;;;;;;;36.43;21.53;;;;;;;;;;10350134;28;20036;-79
2021/11/11 07:21:16;;;;;;;33.58;21.38;;;;;;;;;;10336190;28;20300;-78
2021/11/11 07:26:16;;;;;;;32.45;23.88;;;;;;;;;;10335235;28;20121;-79
2021/11/11 07:31:22;;;;;;;40.47;23.83;;;;;;;;;;10335210;28;20525;-79
2021/11/11 07:36:22;;;;;;;38.20;24.00;;;;;;;;;;10333450;28;20030;-79
2021/11/11 07:41:22;;;;;;;35.40;23.42;;;;;;;;;;10333615;28;20038;-79
2021/11/11 07:46:23;;;;;;;36.88;25.60;;;;;;;;;;10333855;28;20042;-79
2021/11/11 07:51:23;;;;;;;41.67;24.27;;;;;;;;;;10332761;28;20027;-80
2021/11/11 07:56:23;;;;;;;48.03;28.98;;;;;;;;;;10334082;28;20062;-80
2021/11/11 08:01:23;;;;;;;48.03;29.50;;;;;;;;;;10334093;28;20504;-79
2021/11/11 08:06:24;;;;;;;55.25;29.35;;;;;;;;;;10348990;28;20034;-80
2021/11/11 08:11:24;;;;;;;37.00;25.98;;;;;;;;;;10334391;28;20443;-80
2021/11/11 08:16:24;;;;;;;41.20;29.17;;;;;;;;;;10331931;28;20043;-80
2021/11/11 08:21:24;;;;;;;47.75;27.90;;;;;;;;;;10332496;28;20054;-80
2021/11/11 08:26:25;;;;;;;46.72;27.38;;;;;;;;;;10333560;28;20026;-80
2021/11/11 08:31:25;;;;;;;42.75;24.90;;;;;;;;;;10333330;28;20443;-80
2021/11/11 08:36:26;;;;;;;37.67;26.98;;;;;;;;;;10335315;28;20062;-79
2021/11/11 08:41:26;;;;;;;39.60;28.42;;;;;;;;;;10333848;28;20035;-80
2021/11/11 08:46:27;;;;;;;41.60;26.05;;;;;;;;;;10333377;28;20416;-80
2021/11/11 08:51:28;;;;;;;46.38;26.70;;;;;;;;;;10332791;28;20096;-80
2021/11/11 08:56:28;;;;;;;42.60;30.42;;;;;;;;;;10339315;28;20091;-80
2021/11/11 09:01:31;;;;;;;36.35;28.15;;;;;;;;;;10339566;28;20097;-79
2021/11/11 09:06:31;;;;;;;45.53;29.20;;;;;;;;;;10354902;28;20114;-79
2021/11/11 09:11:32;;;;;;;41.42;27.98;;;;;;;;;;10339565;28;20141;-80
2021/11/11 09:16:32;;;;;;;52.75;29.45;;;;;;;;;;10339508;28;20058;-79
2021/11/11 09:21:32;;;;;;;47.10;29.33;;;;;;;;;;10340327;28;20125;-79
2021/11/11 09:26:33;;;;;;;34.55;28.13;;;;;;;;;;10339747;28;20161;-79
2021/11/11 09:31:33;;;;;;;44.10;31.70;;;;;;;;;;10337714;28;20030;-80
2021/11/11 09:36:34;;;;;;;42.70;28.08;;;;;;;;;;10337985;28;20038;-79
2021/11/11 09:41:34;;;;;;;43.28;31.58;;;;;;;;;;10339232;28;20062;-80
2021/11/11 09:46:34;;;;;;;58.83;33.85;;;;;;;;;;10337217;28;20121;-79
2021/11/11 09:51:38;;;;;;;52.95;31.30;;;;;;;;;;10338201;28;20050;-79
2021/11/11 10:01:57;;;;;;;37.78;31.80;;;;;;;;;;10338048;28;20034;-79
2021/11/11 10:06:58;;;;;;;46.88;31.02;;;;;;;;;;10354361;28;20022;-79
2021/11/11 10:11:59;;;;;;;50.88;30.13;;;;;;;;;;10352989;28;20460;-79
2021/11/11 10:17:00;;;;;;;48.28;30.33;;;;;;;;;;10337022;28;20026;-79
2021/11/11 10:22:12;;;;;;;56.30;32.55;;;;;;;;;;10353258;28;20345;-79
2021/11/11 10:27:24;;;;;;;39.33;30.02;;;;;;;;;;10337773;28;20469;-79
2021/11/11 10:32:46;;;;;;;42.03;29.13;;;;;;;;;;10337511;28;20030;-80
2021/11/11 10:37:49;;;;;;;43.88;27.38;;;;;;;;;;10335814;28;20057;-80
2021/11/11 10:42:50;;;;;;;48.92;27.75;;;;;;;;;;10335362;28;20432;-79
2021/11/11 10:47:51;;;;;;;32.47;25.60;;;;;;;;;;10336010;28;20110;-79
2021/11/11 10:53:10;;;;;;;46.22;27.60;;;;;;;;;;10335998;28;20030;-79
2021/11/11 10:58:10;;;;;;;36.45;27.85;;;;;;;;;;10335944;28;20088;-79
2021/11/11 11:03:15;;;;;;;43.93;29.50;;;;;;;;;;10335148;28;20084;-79
2021/11/11 11:08:16;;;;;;;41.15;27.60;;;;;;;;;;10337653;28;20271;-79
2021/11/11 11:13:18;;;;;;;46.05;30.05;;;;;;;;;;10340151;28;20030;-78
2021/11/11 11:18:21;;;;;;;42.85;27.95;;;;;;;;;;10345458;28;20058;-79
2021/11/11 11:23:23;;;;;;;36.38;26.05;;;;;;;;;;10339797;28;20029;-79
2021/11/11 11:28:26;;;;;;;44.20;26.13;;;;;;;;;;10343032;28;20030;-79
2021/11/11 11:33:32;;;;;;;30.23;21.52;;;;;;;;;;10334576;28;20030;-79
2021/11/11 11:38:38;;;;;;;36.95;23.80;;;;;;;;;;10335500;28;20026;-79
2021/11/11 11:43:39;;;;;;;36.73;23.13;;;;;;;;;;10349611;28;20045;-79
2021/11/11 11:48:39;;;;;;;36.08;24.65;;;;;;;;;;10334403;28;20018;-79
2021/11/11 11:53:46;;;;;;;55.17;24.60;;;;;;;;;;10349778;28;20106;-79
2021/11/11 11:59:03;;;;;;;43.42;22.65;;;;;;;;;;10348281;28;20319;-79
2021/11/11 12:14:20;;;;;;;29.77;22.90;;;;;;;;;;10349147;28;20037;-79
2021/11/11 12:34:19;;;;;;;45.58;23.70;;;;;;;;;;10351026;28;20038;-79
2021/11/11 12:41:02;;;;;;;35.83;23.35;;;;;;;;;;10341852;28;20026;-80
2021/11/11 12:46:03;;;;;;;36.63;24.65;;;;;;;;;;10356128;28;20376;-79
2021/11/11 12:51:04;;;;;;;41.13;27.63;;;;;;;;;;10341200;28;20031;-80
2021/11/11 12:56:09;;;;;;;35.22;24.05;;;;;;;;;;10340117;28;20142;-79
2021/11/11 13:01:23;;;;;;;48.20;24.40;;;;;;;;;;10341539;28;20031;-79
2021/11/11 13:06:33;;;;;;;39.38;27.60;;;;;;;;;;10355193;28;20045;-79
2021/11/11 13:11:33;;;;;;;40.08;27.98;;;;;;;;;;10338426;28;20030;-79
2021/11/11 13:16:33;;;;;;;41.92;23.83;;;;;;;;;;10339102;28;20026;-79
2021/11/11 13:21:52;;;;;;;44.22;26.77;;;;;;;;;;10338546;28;20145;-79
2021/11/11 13:53:54;;;;;;;34.38;24.88;;;;;;;;;;10351726;28;20472;-79
2021/11/11 16:23:17;;;;;;;69.43;36.10;;;;;;;;;;10355010;28;20035;-80
2021/11/11 16:28:17;;;;;;;66.43;39.25;;;;;;;;;;10341206;28;20108;-80
2021/11/11 16:33:18;;;;;;;57.37;37.70;;;;;;;;;;10341470;28;20050;-80
2021/11/11 16:38:18;;;;;;;67.32;37.33;;;;;;;;;;10357363;28;20741;-80
2021/11/11 16:43:18;;;;;;;54.03;35.50;;;;;;;;;;10340925;28;20026;-80
2021/11/11 16:48:19;;;;;;;70.75;37.83;;;;;;;;;;10356225;28;20100;-79
2021/11/11 16:53:19;;;;;;;58.78;37.63;;;;;;;;;;10355273;28;20038;-80
2021/11/11 16:58:19;;;;;;;73.45;41.45;;;;;;;;;;10356119;28;20031;-80
2021/11/11 17:03:20;;;;;;;69.05;39.63;;;;;;;;;;10340618;28;20095;-80
2021/11/11 17:08:20;;;;;;;52.35;34.47;;;;;;;;;;10354964;28;20026;-79
2021/11/11 17:13:21;;;;;;;50.75;33.97;;;;;;;;;;10354375;28;20027;-80
2021/11/11 17:18:23;;;;;;;58.92;36.08;;;;;;;;;;10339220;28;20502;-80
2021/11/11 17:23:24;;;;;;;44.35;30.40;;;;;;;;;;10340530;28;20045;-80
2021/11/11 17:28:25;;;;;;;50.17;31.67;;;;;;;;;;10354228;28;20037;-80
2021/11/11 17:33:26;;;;;;;54.13;31.60;;;;;;;;;;10339216;28;20379;-80
2021/11/11 17:38:26;;;;;;;45.60;31.30;;;;;;;;;;10353846;28;20032;-80
2021/11/11 17:43:27;;;;;;;59.42;33.33;;;;;;;;;;10338631;28;20088;-80
2021/11/11 17:48:28;;;;;;;65.85;32.00;;;;;;;;;;10337753;28;20435;-80
2021/11/11 17:53:33;;;;;;;55.43;34.50;;;;;;;;;;10353363;28;20034;-80
2021/11/11 17:58:37;;;;;;;47.38;32.72;;;;;;;;;;10352520;28;20645;-79
2021/11/11 18:03:38;;;;;;;59.05;34.92;;;;;;;;;;10338080;28;20588;-80
2021/11/11 18:08:40;;;;;;;59.03;34.20;;;;;;;;;;10352833;28;20117;-80
2021/11/11 18:13:42;;;;;;;56.92;32.40;;;;;;;;;;10336972;28;20030;-80
2021/11/11 18:18:43;;;;;;;54.45;31.00;;;;;;;;;;10336685;28;20415;-80
2021/11/11 18:23:43;;;;;;;58.85;34.40;;;;;;;;;;10337034;28;20027;-79
2021/11/11 18:34:00;;;;;;;55.67;33.27;;;;;;;;;;10351965;28;20113;-80
2021/11/11 18:39:01;;;;;;;56.00;30.90;;;;;;;;;;10336960;28;20019;-80
2021/11/11 18:44:01;;;;;;;48.65;31.92;;;;;;;;;;10351294;28;20113;-80
2021/11/11 18:49:03;;;;;;;57.38;29.92;;;;;;;;;;10335954;28;20077;-80
2021/11/11 18:54:03;;;;;;;45.13;29.38;;;;;;;;;;10335376;28;20073;-80
2021/11/11 18:59:04;;;;;;;57.30;28.60;;;;;;;;;;10334468;28;20069;-80
2021/11/11 19:04:08;;;;;;;46.15;27.25;;;;;;;;;;10335399;28;20093;-80
2021/11/11 19:09:25;;;;;;;49.47;30.77;;;;;;;;;;10336093;28;20110;-80
2021/11/11 19:14:27;;;;;;;51.73;28.73;;;;;;;;;;10348556;28;20093;-80
2021/11/11 19:19:32;;;;;;;47.58;24.90;;;;;;;;;;10333965;28;20050;-80
2021/11/11 19:24:33;;;;;;;58.10;30.88;;;;;;;;;;10349440;28;20449;-80
2021/11/11 19:29:38;;;;;;;64.90;32.92;;;;;;;;;;10350746;28;20049;-80
2021/11/11 19:34:51;;;;;;;51.35;30.15;;;;;;;;;;10334608;28;20081;-80
2021/11/11 20:27:35;;;;;;;58.47;28.23;;;;;;;;;;10347683;28;20058;-80
2021/11/11 20:37:59;;;;;;;77.13;34.95;;;;;;;;;;10332991;28;20039;-80
2021/11/11 20:48:21;;;;;;;77.30;37.65;;;;;;;;;;10332930;28;20444;-80
2021/11/11 20:58:57;;;;;;;65.75;34.50;;;;;;;;;;10340044;28;20042;-78
2021/11/11 21:04:02;;;;;;;60.28;32.35;;;;;;;;;;10339926;28;20105;-77
2021/11/11 21:19:15;;;;;;;64.05;33.42;;;;;;;;;;10338580;28;20054;-79
2021/11/11 21:24:15;;;;;;;61.75;31.27;;;;;;;;;;10338649;28;20121;-78
2021/11/11 21:29:15;;;;;;;65.75;31.65;;;;;;;;;;10338528;28;20153;-80
2021/11/11 21:34:25;;;;;;;70.90;34.65;;;;;;;;;;10338747;28;20347;-80
2021/11/11 21:39:35;;;;;;;52.58;28.38;;;;;;;;;;10338749;28;20034;-78
2021/11/11 21:44:37;;;;;;;59.25;28.95;;;;;;;;;;10338193;28;20483;-78
2021/11/11 21:49:37;;;;;;;69.10;30.58;;;;;;;;;;10337574;28;20027;-79
2021/11/11 21:54:45;;;;;;;59.60;24.67;;;;;;;;;;10338636;28;20451;-79
2021/11/11 22:04:56;;;;;;;40.95;22.67;;;;;;;;;;10337960;28;20080;-78
2021/11/11 22:25:54;;;;;;;28.85;20.10;;;;;;;;;;10338723;28;20072;-80
2021/11/11 22:36:13;;;;;;;37.72;20.73;;;;;;;;;;10336322;28;20030;-79
2021/11/11 22:41:16;;;;;;;29.15;18.58;;;;;;;;;;10351971;28;20038;-80
2021/11/11 22:46:16;;;;;;;36.47;18.40;;;;;;;;;;10351527;28;20471;-79
2021/11/11 22:51:17;;;;;;;38.58;19.05;;;;;;;;;;10352419;28;20037;-80
2021/11/11 22:56:25;;;;;;;33.28;21.33;;;;;;;;;;10351243;28;20029;-79
2021/11/11 23:22:42;;;;;;;32.50;19.27;;;;;;;;;;10348969;28;20389;-79
2021/11/11 23:32:57;;;;;;;31.17;20.55;;;;;;;;;;10335541;28;20380;-79
2021/11/11 23:37:58;;;;;;;38.20;20.85;;;;;;;;;;10347617;28;20495;-79
2021/11/11 23:43:01;;;;;;;29.77;19.90;;;;;;;;;;10349734;28;20054;-79
2021/11/11 23:48:16;;;;;;;41.15;21.77;;;;;;;;;;10349674;28;20021;-79
